createdAt,value
2019-04-03T00:00:50.223Z,0
2019-04-03T00:01:52.457Z,0
2019-04-03T00:02:54.778Z,0
2019-04-03T00:03:56.801Z,0
2019-04-03T00:04:58.937Z,0
2019-04-03T00:06:01.073Z,0
2019-04-03T00:07:06.674Z,0
2019-04-03T00:08:08.734Z,0
2019-04-03T00:09:10.753Z,0
2019-04-03T00:10:12.920Z,0
2019-04-03T00:11:14.987Z,0
2019-04-03T00:12:17.538Z,0
2019-04-03T00:13:19.663Z,0
2019-04-03T00:14:21.679Z,0
2019-04-03T00:15:23.773Z,0
2019-04-03T00:16:25.854Z,0
2019-04-03T00:17:27.861Z,0
2019-04-03T00:18:29.920Z,0
2019-04-03T00:19:31.980Z,0
2019-04-03T00:20:34.176Z,0
2019-04-03T00:21:36.203Z,0
2019-04-03T00:22:39.041Z,0
2019-04-03T00:23:41.470Z,0
2019-04-03T00:24:44.063Z,0
2019-04-03T00:25:46.187Z,0
2019-04-03T00:26:48.298Z,0
2019-04-03T00:27:53.802Z,0
2019-04-03T00:28:55.836Z,0
2019-04-03T00:29:57.845Z,0
2019-04-03T00:31:00.572Z,0
2019-04-03T00:32:02.748Z,0
2019-04-03T00:33:05.189Z,0
2019-04-03T00:34:07.269Z,0
2019-04-03T00:35:09.412Z,0
2019-04-03T00:36:11.659Z,0
2019-04-03T00:37:13.715Z,0
2019-04-03T00:38:15.876Z,0
2019-04-03T00:39:17.940Z,0
2019-04-03T00:40:20.050Z,0
2019-04-03T00:41:25.916Z,0
2019-04-03T00:42:28.054Z,0
2019-04-03T00:43:30.261Z,0
2019-04-03T00:44:32.670Z,0
2019-04-03T00:45:35.178Z,0
2019-04-03T00:46:37.294Z,0
2019-04-03T00:47:39.593Z,0
2019-04-03T00:48:42.244Z,0
2019-04-03T00:49:44.333Z,0
2019-04-03T00:50:46.526Z,0
2019-04-03T00:51:48.691Z,0
2019-04-03T00:52:51.465Z,0
2019-04-03T00:53:53.614Z,0
2019-04-03T00:54:58.140Z,0
2019-04-03T00:56:00.284Z,0
2019-04-03T00:57:02.355Z,0
2019-04-03T00:58:04.617Z,0
2019-04-03T00:59:06.776Z,0
2019-04-03T01:00:08.833Z,0
2019-04-03T01:01:11.342Z,0
2019-04-03T01:02:16.839Z,0
2019-04-03T01:03:18.988Z,0
2019-04-03T01:04:21.187Z,0
2019-04-03T01:05:23.229Z,0
2019-04-03T01:06:28.909Z,0
2019-04-03T01:07:31.079Z,0
2019-04-03T01:08:33.421Z,0
2019-04-03T01:09:35.572Z,0
2019-04-03T01:10:37.596Z,0
2019-04-03T01:11:39.725Z,0
2019-04-03T01:12:42.170Z,0
2019-04-03T01:13:44.358Z,0
2019-04-03T01:14:46.408Z,0
2019-04-03T01:15:48.478Z,0
2019-04-03T01:16:51.198Z,0
2019-04-03T01:17:53.391Z,0
2019-04-03T01:18:55.513Z,0
2019-04-03T01:19:57.573Z,0
2019-04-03T01:20:59.798Z,0
2019-04-03T01:22:02.419Z,0
2019-04-03T01:23:07.943Z,0
2019-04-03T01:24:10.211Z,0
2019-04-03T01:25:12.774Z,0
2019-04-03T01:26:15.105Z,0
2019-04-03T01:27:17.122Z,0
2019-04-03T01:28:19.163Z,0
2019-04-03T01:29:21.407Z,0
2019-04-03T01:30:23.839Z,0
2019-04-03T01:31:26.174Z,0
2019-04-03T01:32:28.413Z,0
2019-04-03T01:33:30.445Z,0
2019-04-03T01:34:32.711Z,0
2019-04-03T01:35:35.098Z,0
2019-04-03T01:36:37.232Z,0
2019-04-03T01:37:39.547Z,0
2019-04-03T01:38:41.866Z,0
2019-04-03T01:39:43.988Z,0
2019-04-03T01:40:46.237Z,0
2019-04-03T01:41:48.283Z,0
2019-04-03T01:42:54.181Z,0
2019-04-03T01:43:56.372Z,0
2019-04-03T01:44:58.516Z,0
2019-04-03T01:46:00.943Z,0
2019-04-03T01:47:02.975Z,0
2019-04-03T01:48:05.241Z,0
2019-04-03T01:49:07.388Z,0
2019-04-03T01:50:09.424Z,0
2019-04-03T01:51:11.541Z,0
2019-04-03T01:52:13.890Z,0
2019-04-03T01:53:16.309Z,0
2019-04-03T01:54:18.388Z,0
2019-04-03T01:55:20.594Z,0
2019-04-03T01:56:22.837Z,0
2019-04-03T01:57:25.179Z,0
2019-04-03T01:58:27.216Z,0
2019-04-03T01:59:29.748Z,0
2019-04-03T02:00:31.832Z,0
2019-04-03T02:01:34.253Z,0
2019-04-03T02:02:40.468Z,0
2019-04-03T02:03:43.543Z,0
2019-04-03T02:04:45.772Z,0
2019-04-03T02:05:47.793Z,0
2019-04-03T02:06:49.910Z,0
2019-04-03T02:07:52.016Z,0
2019-04-03T02:08:54.111Z,0
2019-04-03T02:09:56.344Z,0
2019-04-03T02:10:58.553Z,0
2019-04-03T02:12:00.909Z,0
2019-04-03T02:13:03.238Z,0
2019-04-03T02:14:05.907Z,0
2019-04-03T02:15:08.049Z,0
2019-04-03T02:16:10.188Z,0
2019-04-03T02:17:12.690Z,0
2019-04-03T02:18:14.766Z,0
2019-04-03T02:19:16.873Z,0
2019-04-03T02:20:18.984Z,0
2019-04-03T02:21:21.259Z,0
2019-04-03T02:22:23.621Z,0
2019-04-03T02:23:25.819Z,0
2019-04-03T02:24:27.974Z,0
2019-04-03T02:25:33.738Z,0
2019-04-03T02:26:35.964Z,0
2019-04-03T02:27:38.102Z,0
2019-04-03T02:28:40.507Z,0
2019-04-03T02:29:42.598Z,0
2019-04-03T02:30:48.962Z,0
2019-04-03T02:31:54.937Z,0
2019-04-03T02:32:59.399Z,0
2019-04-03T02:34:04.460Z,0
2019-04-03T02:35:09.825Z,0
2019-04-03T02:36:14.946Z,0
2019-04-03T02:37:19.652Z,0
2019-04-03T02:38:24.894Z,0
2019-04-03T02:39:29.600Z,0
2019-04-03T02:40:35.218Z,0
2019-04-03T02:41:39.513Z,0
2019-04-03T02:42:43.942Z,0
2019-04-03T02:43:49.078Z,0
2019-04-03T02:44:54.388Z,0
2019-04-03T02:45:59.205Z,0
2019-04-03T02:47:04.008Z,0
2019-04-03T02:48:09.005Z,0
2019-04-03T02:49:13.042Z,0
2019-04-03T02:50:16.920Z,0
2019-04-03T02:51:21.811Z,0
2019-04-03T02:52:27.241Z,0
2019-04-03T02:53:32.517Z,0
2019-04-03T02:54:38.557Z,0
2019-04-03T02:55:42.408Z,0
2019-04-03T02:56:47.629Z,0
2019-04-03T02:57:51.947Z,0
2019-04-03T02:58:56.828Z,0
2019-04-03T03:00:03.113Z,0
2019-04-03T03:01:09.203Z,0
2019-04-03T03:02:15.541Z,0
2019-04-03T03:03:20.232Z,0
2019-04-03T03:04:23.762Z,0
2019-04-03T03:05:30.777Z,0
2019-04-03T03:06:35.027Z,0
2019-04-03T03:07:38.951Z,0
2019-04-03T03:08:44.039Z,0
2019-04-03T03:09:49.789Z,0
2019-04-03T03:10:55.734Z,0
2019-04-03T03:11:58.474Z,0
2019-04-03T03:13:04.382Z,0
2019-04-03T03:14:10.114Z,0
2019-04-03T03:15:14.539Z,0
2019-04-03T03:16:20.657Z,0
2019-04-03T03:17:25.368Z,0
2019-04-03T03:18:30.200Z,0
2019-04-03T03:19:35.768Z,0
2019-04-03T03:20:42.424Z,0
2019-04-03T03:21:47.894Z,0
2019-04-03T03:22:52.957Z,0
2019-04-03T03:23:58.828Z,0
2019-04-03T03:25:04.060Z,0
2019-04-03T03:26:08.104Z,0
2019-04-03T03:27:11.742Z,0
2019-04-03T03:28:17.404Z,0
2019-04-03T03:29:29.315Z,0
2019-04-03T03:31:08.639Z,0
2019-04-03T03:32:39.710Z,0
2019-04-03T03:33:46.227Z,0
2019-04-03T03:35:47.962Z,0
2019-04-03T03:37:05.662Z,0
2019-04-03T03:38:10.464Z,0
2019-04-03T03:39:14.379Z,0
2019-04-03T03:40:18.764Z,0
2019-04-03T03:41:26.060Z,0
2019-04-03T03:42:34.114Z,0
2019-04-03T03:43:40.657Z,0
2019-04-03T03:44:48.361Z,0
2019-04-03T03:45:55.683Z,0
2019-04-03T03:47:04.260Z,0
2019-04-03T03:48:12.583Z,0
2019-04-03T03:49:19.857Z,0
2019-04-03T03:50:27.335Z,0
2019-04-03T03:51:34.032Z,0
2019-04-03T03:52:41.077Z,0
2019-04-03T03:53:48.562Z,0
2019-04-03T03:54:54.155Z,0
2019-04-03T03:56:01.858Z,0
2019-04-03T03:57:10.237Z,0
2019-04-03T03:58:15.560Z,0
2019-04-03T03:59:20.772Z,0
2019-04-03T04:00:26.658Z,0
2019-04-03T04:01:34.467Z,0
2019-04-03T04:02:45.957Z,0
2019-04-03T04:03:48.877Z,0
2019-04-03T04:04:51.176Z,0
2019-04-03T04:05:58.371Z,0
2019-04-03T04:07:06.352Z,0
2019-04-03T04:08:13.996Z,0
2019-04-03T04:09:19.669Z,0
2019-04-03T04:10:28.275Z,0
2019-04-03T04:11:34.243Z,0
2019-04-03T04:12:43.498Z,0
2019-04-03T04:13:51.508Z,0
2019-04-03T04:14:58.821Z,0
2019-04-03T04:16:07.025Z,0
2019-04-03T04:17:20.643Z,0
2019-04-03T04:18:26.768Z,0
2019-04-03T04:19:34.018Z,0
2019-04-03T04:20:41.256Z,0
2019-04-03T04:21:47.579Z,0
2019-04-03T04:22:53.214Z,0
2019-04-03T04:23:59.360Z,0
2019-04-03T04:25:02.196Z,0
2019-04-03T04:26:05.003Z,0
2019-04-03T04:27:07.662Z,0
2019-04-03T04:28:11.024Z,0
2019-04-03T04:29:13.681Z,0
2019-04-03T04:30:15.750Z,0
2019-04-03T04:31:18.221Z,0
2019-04-03T04:32:21.078Z,0
2019-04-03T04:33:23.433Z,0
2019-04-03T04:34:26.307Z,0
2019-04-03T04:35:28.901Z,0
2019-04-03T04:36:30.927Z,0
2019-04-03T04:37:33.437Z,0
2019-04-03T04:38:35.693Z,0
2019-04-03T04:39:37.914Z,0
2019-04-03T04:40:40.791Z,0
2019-04-03T04:41:43.024Z,0
2019-04-03T04:42:45.475Z,0
2019-04-03T04:43:47.978Z,0
2019-04-03T04:44:50.184Z,0
2019-04-03T04:45:52.316Z,0
2019-04-03T04:46:54.917Z,0
2019-04-03T04:47:57.483Z,0
2019-04-03T04:48:59.809Z,0
2019-04-03T04:50:02.671Z,0
2019-04-03T04:51:05.109Z,1
2019-04-03T04:52:07.496Z,1
2019-04-03T04:53:10.122Z,1
2019-04-03T04:54:12.300Z,1
2019-04-03T04:55:14.830Z,1
2019-04-03T04:56:17.074Z,1
2019-04-03T04:57:19.573Z,1
2019-04-03T04:58:21.977Z,1
2019-04-03T04:59:24.332Z,1
2019-04-03T05:00:30.286Z,1
2019-04-03T05:01:32.917Z,2
2019-04-03T05:02:34.968Z,2
2019-04-03T05:03:37.036Z,2
2019-04-03T05:04:39.209Z,2
2019-04-03T05:05:41.788Z,2
2019-04-03T05:06:43.997Z,2
2019-04-03T05:07:46.434Z,3
2019-04-03T05:08:48.480Z,3
2019-04-03T05:09:51.335Z,3
2019-04-03T05:10:53.502Z,3
2019-04-03T05:11:55.942Z,3
2019-04-03T05:12:58.314Z,3
2019-04-03T05:14:00.524Z,3
2019-04-03T05:15:03.655Z,4
2019-04-03T05:16:06.451Z,4
2019-04-03T05:17:08.555Z,4
2019-04-03T05:18:10.720Z,4
2019-04-03T05:19:20.865Z,4
2019-04-03T05:20:23.284Z,4
2019-04-03T05:21:25.573Z,4
2019-04-03T05:22:27.719Z,5
2019-04-03T05:23:29.943Z,5
2019-04-03T05:24:32.317Z,5
2019-04-03T05:25:34.899Z,5
2019-04-03T05:26:37.484Z,5
2019-04-03T05:27:39.880Z,5
2019-04-03T05:28:58.671Z,5
2019-04-03T05:30:00.991Z,5
2019-04-03T05:31:03.482Z,5
2019-04-03T05:32:06.449Z,6
2019-04-03T05:33:13.062Z,6
2019-04-03T05:34:15.328Z,6
2019-04-03T05:35:18.144Z,6
2019-04-03T05:36:20.469Z,7
2019-04-03T05:37:22.883Z,7
2019-04-03T05:38:25.234Z,7
2019-04-03T05:39:27.407Z,7
2019-04-03T05:40:29.549Z,7
2019-04-03T05:41:31.863Z,8
2019-04-03T05:42:34.204Z,8
2019-04-03T05:43:36.686Z,8
2019-04-03T05:44:39.999Z,8
2019-04-03T05:45:43.471Z,8
2019-04-03T05:46:45.718Z,9
2019-04-03T05:47:48.003Z,9
2019-04-03T05:48:50.670Z,9
2019-04-03T05:49:57.516Z,9
2019-04-03T05:51:00.025Z,9
2019-04-03T05:52:06.038Z,10
2019-04-03T05:53:08.466Z,10
2019-04-03T05:54:14.849Z,11
2019-04-03T05:55:17.763Z,11
2019-04-03T05:56:20.605Z,11
2019-04-03T05:57:23.079Z,12
2019-04-03T05:58:25.715Z,12
2019-04-03T05:59:28.157Z,13
2019-04-03T06:00:30.773Z,14
2019-04-03T06:01:32.972Z,14
2019-04-03T06:02:35.791Z,15
2019-04-03T06:03:46.947Z,15
2019-04-03T06:04:50.097Z,15
2019-04-03T06:05:52.606Z,16
2019-04-03T06:06:54.982Z,16
2019-04-03T06:07:57.329Z,16
2019-04-03T06:09:00.005Z,17
2019-04-03T06:10:02.249Z,17
2019-04-03T06:11:11.597Z,17
2019-04-03T06:12:20.401Z,18
2019-04-03T06:13:22.670Z,18
2019-04-03T06:14:26.257Z,18
2019-04-03T06:15:28.578Z,18
2019-04-03T06:16:30.736Z,19
2019-04-03T06:17:33.710Z,19
2019-04-03T06:18:36.059Z,19
2019-04-03T06:19:41.505Z,19
2019-04-03T06:20:45.268Z,19
2019-04-03T06:21:48.262Z,19
2019-04-03T06:22:52.554Z,19
2019-04-03T06:23:55.265Z,19
2019-04-03T06:24:58.306Z,19
2019-04-03T06:26:04.688Z,19
2019-04-03T06:27:11.244Z,20
2019-04-03T06:28:15.715Z,20
2019-04-03T06:29:20.868Z,21
2019-04-03T06:30:27.502Z,21
2019-04-03T06:31:30.208Z,21
2019-04-03T06:32:32.639Z,22
2019-04-03T06:33:38.258Z,21
2019-04-03T06:34:45.572Z,21
2019-04-03T06:35:48.270Z,21
2019-04-03T06:36:53.085Z,21
2019-04-03T06:37:55.348Z,21
2019-04-03T06:38:58.775Z,21
2019-04-03T06:40:05.538Z,21
2019-04-03T06:41:10.835Z,21
2019-04-03T06:42:15.943Z,22
2019-04-03T06:43:19.368Z,22
2019-04-03T06:44:24.408Z,22
2019-04-03T06:45:28.731Z,23
2019-04-03T06:46:32.432Z,23
2019-04-03T06:47:34.469Z,24
2019-04-03T06:48:38.802Z,25
2019-04-03T06:49:42.654Z,25
2019-04-03T06:50:45.487Z,26
2019-04-03T06:51:51.203Z,27
2019-04-03T06:52:55.170Z,28
2019-04-03T06:54:01.430Z,29
2019-04-03T06:55:05.922Z,30
2019-04-03T06:56:10.887Z,31
2019-04-03T06:57:15.797Z,32
2019-04-03T06:58:18.086Z,34
2019-04-03T06:59:20.869Z,35
2019-04-03T07:00:23.165Z,36
2019-04-03T07:01:25.546Z,37
2019-04-03T07:02:33.761Z,37
2019-04-03T07:03:36.816Z,37
2019-04-03T07:04:40.345Z,37
2019-04-03T07:05:43.730Z,37
2019-04-03T07:06:46.946Z,37
2019-04-03T07:07:49.151Z,38
2019-04-03T07:08:51.190Z,38
2019-04-03T07:09:53.686Z,38
2019-04-03T07:10:57.100Z,38
2019-04-03T07:11:59.154Z,38
2019-04-03T07:13:01.206Z,38
2019-04-03T07:14:04.080Z,38
2019-04-03T07:15:06.132Z,37
2019-04-03T07:16:08.515Z,38
2019-04-03T07:17:11.160Z,41
2019-04-03T07:18:13.704Z,41
2019-04-03T07:19:16.133Z,41
2019-04-03T07:20:23.583Z,42
2019-04-03T07:21:29.332Z,42
2019-04-03T07:22:31.802Z,42
2019-04-03T07:23:34.076Z,41
2019-04-03T07:24:36.443Z,41
2019-04-03T07:25:38.839Z,41
2019-04-03T07:26:41.751Z,43
2019-04-03T07:27:44.298Z,44
2019-04-03T07:28:46.567Z,44
2019-04-03T07:29:51.957Z,45
2019-04-03T07:30:55.754Z,47
2019-04-03T07:31:59.137Z,48
2019-04-03T07:33:01.861Z,49
2019-04-03T07:34:05.614Z,50
2019-04-03T07:35:11.944Z,49
2019-04-03T07:36:14.695Z,49
2019-04-03T07:37:21.855Z,50
2019-04-03T07:38:24.863Z,50
2019-04-03T07:39:27.717Z,51
2019-04-03T07:40:30.108Z,52
2019-04-03T07:41:32.166Z,53
2019-04-03T07:42:34.693Z,56
2019-04-03T07:43:37.169Z,57
2019-04-03T07:44:39.902Z,57
2019-04-03T07:45:45.149Z,57
2019-04-03T07:46:47.447Z,57
2019-04-03T07:47:49.675Z,57
2019-04-03T07:48:52.050Z,58
2019-04-03T07:49:54.469Z,59
2019-04-03T07:50:57.258Z,60
2019-04-03T07:51:59.714Z,61
2019-04-03T07:53:02.022Z,62
2019-04-03T07:54:06.489Z,61
2019-04-03T07:55:09.135Z,60
2019-04-03T07:56:11.557Z,59
2019-04-03T07:57:17.932Z,56
2019-04-03T07:58:20.906Z,55
2019-04-03T07:59:23.033Z,54
2019-04-03T08:00:25.296Z,54
2019-04-03T08:01:27.902Z,55
2019-04-03T08:02:30.264Z,58
2019-04-03T08:03:32.477Z,56
2019-04-03T08:04:34.726Z,52
2019-04-03T08:05:37.254Z,51
2019-04-03T08:06:39.620Z,50
2019-04-03T08:07:42.065Z,49
2019-04-03T08:08:44.551Z,48
2019-04-03T08:09:47.409Z,47
2019-04-03T08:10:49.809Z,46
2019-04-03T08:11:52.254Z,46
2019-04-03T08:12:54.541Z,44
2019-04-03T08:13:57.398Z,42
2019-04-03T08:14:59.988Z,41
2019-04-03T08:16:02.319Z,43
2019-04-03T08:17:04.855Z,45
2019-04-03T08:18:07.786Z,49
2019-04-03T08:19:10.192Z,52
2019-04-03T08:20:13.045Z,54
2019-04-03T08:21:15.311Z,55
2019-04-03T08:22:18.087Z,55
2019-04-03T08:23:21.137Z,54
2019-04-03T08:24:23.984Z,52
2019-04-03T08:25:26.045Z,51
2019-04-03T08:26:29.094Z,50
2019-04-03T08:27:31.542Z,50
2019-04-03T08:28:34.352Z,49
2019-04-03T08:29:40.223Z,48
2019-04-03T08:30:42.383Z,47
2019-04-03T08:31:49.998Z,46
2019-04-03T08:32:52.587Z,48
2019-04-03T08:33:54.908Z,49
2019-04-03T08:34:58.196Z,51
2019-04-03T08:36:00.596Z,51
2019-04-03T08:37:03.569Z,52
2019-04-03T08:38:06.245Z,53
2019-04-03T08:39:09.208Z,54
2019-04-03T08:40:11.721Z,56
2019-04-03T08:41:14.571Z,57
2019-04-03T08:42:17.226Z,59
2019-04-03T08:43:19.890Z,61
2019-04-03T08:44:22.417Z,63
2019-04-03T08:45:25.123Z,64
2019-04-03T08:46:27.841Z,66
2019-04-03T08:47:30.498Z,69
2019-04-03T08:48:33.083Z,67
2019-04-03T08:49:35.379Z,69
2019-04-03T08:50:38.120Z,72
2019-04-03T08:51:40.380Z,74
2019-04-03T08:52:42.703Z,75
2019-04-03T08:53:45.256Z,74
2019-04-03T08:54:47.697Z,72
2019-04-03T08:55:50.029Z,71
2019-04-03T08:56:52.801Z,70
2019-04-03T08:57:55.432Z,70
2019-04-03T08:58:59.864Z,66
2019-04-03T09:00:03.411Z,63
2019-04-03T09:01:06.569Z,58
2019-04-03T09:02:14.950Z,53
2019-04-03T09:03:17.321Z,47
2019-04-03T09:04:20.612Z,42
2019-04-03T09:05:22.961Z,38
2019-04-03T09:06:25.455Z,34
2019-04-03T09:07:28.037Z,33
2019-04-03T09:08:30.067Z,33
2019-04-03T09:09:36.757Z,34
2019-04-03T09:10:39.890Z,37
2019-04-03T09:11:42.570Z,39
2019-04-03T09:12:45.333Z,45
2019-04-03T09:13:47.741Z,54
2019-04-03T09:14:50.200Z,63
2019-04-03T09:15:52.610Z,68
2019-04-03T09:16:55.162Z,72
2019-04-03T09:17:57.533Z,74
2019-04-03T09:19:00.210Z,79
2019-04-03T09:20:02.902Z,89
2019-04-03T09:21:05.618Z,106
2019-04-03T09:22:08.120Z,121
2019-04-03T09:23:10.388Z,128
2019-04-03T09:24:12.984Z,131
2019-04-03T09:25:15.647Z,136
2019-04-03T09:26:17.939Z,133
2019-04-03T09:27:20.764Z,128
2019-04-03T09:28:23.319Z,123
2019-04-03T09:29:25.695Z,134
2019-04-03T09:30:28.199Z,135
2019-04-03T09:31:31.922Z,147
2019-04-03T09:32:38.127Z,147
2019-04-03T09:33:40.845Z,143
2019-04-03T09:34:43.839Z,142
2019-04-03T09:35:46.341Z,142
2019-04-03T09:36:48.986Z,128
2019-04-03T09:37:51.426Z,117
2019-04-03T09:38:53.460Z,115
2019-04-03T09:39:56.474Z,110
2019-04-03T09:40:59.099Z,101
2019-04-03T09:42:01.701Z,97
2019-04-03T09:43:04.150Z,91
2019-04-03T09:44:06.834Z,83
2019-04-03T09:45:09.651Z,80
2019-04-03T09:46:12.303Z,80
2019-04-03T09:47:15.206Z,82
2019-04-03T09:48:17.843Z,83
2019-04-03T09:49:20.178Z,84
2019-04-03T09:50:24.367Z,93
2019-04-03T09:51:26.926Z,98
2019-04-03T09:52:56.035Z,104
2019-04-03T09:54:00.061Z,108
2019-04-03T09:55:02.979Z,119
2019-04-03T09:56:09.881Z,122
2019-04-03T09:57:12.986Z,139
2019-04-03T09:58:15.435Z,145
2019-04-03T09:59:18.441Z,129
2019-04-03T10:00:21.045Z,119
2019-04-03T10:01:23.319Z,145
2019-04-03T10:02:25.902Z,108
2019-04-03T10:03:32.748Z,99
2019-04-03T10:04:35.430Z,100
2019-04-03T10:05:37.674Z,161
2019-04-03T10:06:40.056Z,130
2019-04-03T10:07:42.148Z,169
2019-04-03T10:08:44.367Z,160
2019-04-03T10:09:46.750Z,157
2019-04-03T10:10:50.053Z,155
2019-04-03T10:11:54.011Z,140
2019-04-03T10:12:56.737Z,139
2019-04-03T10:13:59.957Z,133
2019-04-03T10:15:02.938Z,127
2019-04-03T10:16:06.568Z,113
2019-04-03T10:17:09.835Z,109
2019-04-03T10:18:12.407Z,111
2019-04-03T10:19:16.412Z,144
2019-04-03T10:20:21.397Z,116
2019-04-03T10:21:23.788Z,123
2019-04-03T10:22:27.186Z,133
2019-04-03T10:23:30.586Z,165
2019-04-03T10:24:34.080Z,171
2019-04-03T10:25:39.617Z,175
2019-04-03T10:26:42.881Z,164
2019-04-03T10:27:45.593Z,189
2019-04-03T10:28:50.125Z,186
2019-04-03T10:29:57.208Z,173
2019-04-03T10:30:59.691Z,173
2019-04-03T10:32:02.134Z,174
2019-04-03T10:33:04.582Z,166
2019-04-03T10:34:07.220Z,118
2019-04-03T10:35:10.300Z,114
2019-04-03T10:36:18.610Z,96
2019-04-03T10:37:21.342Z,87
2019-04-03T10:38:23.388Z,84
2019-04-03T10:39:25.950Z,80
2019-04-03T10:40:28.919Z,77
2019-04-03T10:41:31.730Z,85
2019-04-03T10:42:34.904Z,87
2019-04-03T10:43:39.587Z,92
2019-04-03T10:44:42.261Z,109
2019-04-03T10:45:45.001Z,135
2019-04-03T10:46:51.390Z,133
2019-04-03T10:47:58.559Z,129
2019-04-03T10:49:03.102Z,134
2019-04-03T10:50:07.663Z,119
2019-04-03T10:51:11.900Z,103
2019-04-03T10:52:16.189Z,92
2019-04-03T10:53:22.458Z,89
2019-04-03T10:54:27.225Z,92
2019-04-03T10:55:31.373Z,92
2019-04-03T10:56:34.675Z,89
2019-04-03T10:57:37.581Z,87
2019-04-03T10:58:45.487Z,83
2019-04-03T10:59:57.996Z,78
2019-04-03T11:01:01.765Z,72
2019-04-03T11:02:05.431Z,67
2019-04-03T11:03:07.813Z,62
2019-04-03T11:04:10.526Z,57
2019-04-03T11:05:13.969Z,52
2019-04-03T11:06:16.305Z,49
2019-04-03T11:07:18.339Z,46
2019-04-03T11:08:20.658Z,43
2019-04-03T11:09:22.969Z,40
2019-04-03T11:10:27.304Z,35
2019-04-03T11:11:32.520Z,33
2019-04-03T11:12:35.496Z,34
2019-04-03T11:13:38.349Z,37
2019-04-03T11:14:41.937Z,41
2019-04-03T11:15:46.912Z,45
2019-04-03T11:16:49.804Z,48
2019-04-03T11:17:52.112Z,48
2019-04-03T11:19:08.988Z,47
2019-04-03T11:20:13.309Z,44
2019-04-03T11:21:15.922Z,40
2019-04-03T11:22:18.579Z,37
2019-04-03T11:23:47.079Z,35
2019-04-03T11:24:50.193Z,33
2019-04-03T11:25:53.634Z,33
2019-04-03T11:26:56.528Z,33
2019-04-03T11:27:58.972Z,33
2019-04-03T11:29:01.917Z,36
2019-04-03T11:30:04.841Z,42
2019-04-03T11:31:07.626Z,48
2019-04-03T11:32:11.909Z,56
2019-04-03T11:33:16.347Z,65
2019-04-03T11:34:21.292Z,75
2019-04-03T11:35:24.181Z,79
2019-04-03T11:36:32.084Z,76
2019-04-03T11:37:35.636Z,75
2019-04-03T11:38:37.898Z,72
2019-04-03T11:39:40.462Z,71
2019-04-03T11:40:43.430Z,70
2019-04-03T11:41:46.106Z,70
2019-04-03T11:42:48.662Z,71
2019-04-03T11:43:51.365Z,74
2019-04-03T11:44:54.257Z,77
2019-04-03T11:45:56.524Z,82
2019-04-03T11:46:59.038Z,83
2019-04-03T11:48:01.192Z,83
2019-04-03T11:49:04.413Z,85
2019-04-03T11:50:06.793Z,90
2019-04-03T11:51:09.707Z,92
2019-04-03T11:52:12.052Z,89
2019-04-03T11:53:14.741Z,94
2019-04-03T11:54:17.995Z,105
2019-04-03T11:55:20.301Z,116
2019-04-03T11:56:26.040Z,116
2019-04-03T11:57:30.450Z,108
2019-04-03T11:58:34.539Z,105
2019-04-03T11:59:38.071Z,113
2019-04-03T12:00:40.486Z,109
2019-04-03T12:01:43.184Z,112
2019-04-03T12:02:46.933Z,90
2019-04-03T12:03:53.108Z,83
2019-04-03T12:04:57.057Z,86
2019-04-03T12:05:59.553Z,91
2019-04-03T12:07:02.234Z,100
2019-04-03T12:08:04.712Z,108
2019-04-03T12:09:07.721Z,114
2019-04-03T12:10:10.316Z,119
2019-04-03T12:11:13.061Z,127
2019-04-03T12:12:16.822Z,119
2019-04-03T12:13:23.794Z,117
2019-04-03T12:14:26.944Z,124
2019-04-03T12:15:30.063Z,138
2019-04-03T12:16:32.190Z,146
2019-04-03T12:17:34.900Z,140
2019-04-03T12:18:37.721Z,145
2019-04-03T12:19:40.676Z,156
2019-04-03T12:20:51.176Z,143
2019-04-03T12:22:01.436Z,136
2019-04-03T12:23:04.865Z,123
2019-04-03T12:24:07.596Z,129
2019-04-03T12:25:10.332Z,140
2019-04-03T12:26:14.402Z,140
2019-04-03T12:27:16.866Z,133
2019-04-03T12:28:21.787Z,107
2019-04-03T12:29:25.772Z,87
2019-04-03T12:30:30.635Z,77
2019-04-03T12:31:33.074Z,70
2019-04-03T12:32:51.319Z,69
2019-04-03T12:34:08.513Z,67
2019-04-03T12:35:13.053Z,68
2019-04-03T12:36:16.518Z,68
2019-04-03T12:37:26.142Z,70
2019-04-03T12:38:28.643Z,62
2019-04-03T12:39:31.991Z,59
2019-04-03T12:40:35.677Z,56
2019-04-03T12:41:39.593Z,51
2019-04-03T12:42:42.644Z,45
2019-04-03T12:43:45.457Z,39
2019-04-03T12:44:48.255Z,34
2019-04-03T12:45:51.219Z,29
2019-04-03T12:46:53.546Z,25
2019-04-03T12:47:56.643Z,23
2019-04-03T12:48:59.733Z,24
2019-04-03T12:50:03.022Z,27
2019-04-03T12:51:06.434Z,30
2019-04-03T12:52:08.916Z,31
2019-04-03T12:53:12.130Z,32
2019-04-03T12:54:19.363Z,31
2019-04-03T12:55:27.351Z,31
2019-04-03T12:56:32.793Z,32
2019-04-03T12:57:40.692Z,35
2019-04-03T12:58:43.389Z,40
2019-04-03T12:59:49.257Z,42
2019-04-03T13:00:52.447Z,44
2019-04-03T13:01:55.327Z,46
2019-04-03T13:02:58.424Z,50
2019-04-03T13:04:01.419Z,55
2019-04-03T13:05:08.763Z,64
2019-04-03T13:06:12.420Z,77
2019-04-03T13:07:17.190Z,94
2019-04-03T13:08:23.509Z,126
2019-04-03T13:09:26.746Z,147
2019-04-03T13:10:50.362Z,156
2019-04-03T13:11:52.798Z,150
2019-04-03T13:12:58.648Z,147
2019-04-03T13:14:01.952Z,125
2019-04-03T13:15:08.529Z,100
2019-04-03T13:16:13.144Z,92
2019-04-03T13:17:16.960Z,82
2019-04-03T13:18:20.228Z,83
2019-04-03T13:19:27.574Z,78
2019-04-03T13:20:30.844Z,80
2019-04-03T13:21:33.253Z,92
2019-04-03T13:22:35.926Z,87
2019-04-03T13:23:38.314Z,83
2019-04-03T13:24:40.862Z,78
2019-04-03T13:25:43.718Z,73
2019-04-03T13:26:47.124Z,71
2019-04-03T13:27:50.149Z,74
2019-04-03T13:28:52.734Z,81
2019-04-03T13:29:55.078Z,96
2019-04-03T13:30:57.660Z,102
2019-04-03T13:32:00.061Z,111
2019-04-03T13:33:09.240Z,125
2019-04-03T13:34:13.294Z,125
2019-04-03T13:35:18.686Z,121
2019-04-03T13:36:25.802Z,109
2019-04-03T13:37:28.813Z,94
2019-04-03T13:38:32.025Z,79
2019-04-03T13:39:37.071Z,71
2019-04-03T13:40:40.833Z,67
2019-04-03T13:41:45.172Z,64
2019-04-03T13:42:51.691Z,61
2019-04-03T13:43:56.265Z,61
2019-04-03T13:45:01.959Z,61
2019-04-03T13:46:07.550Z,62
2019-04-03T13:47:11.996Z,63
2019-04-03T13:48:16.362Z,63
2019-04-03T13:49:20.670Z,58
2019-04-03T13:50:25.754Z,53
2019-04-03T13:51:30.209Z,53
2019-04-03T13:52:52.363Z,58
2019-04-03T13:53:56.660Z,61
2019-04-03T13:55:01.442Z,64
2019-04-03T13:56:13.045Z,61
2019-04-03T13:57:18.506Z,61
2019-04-03T13:58:28.505Z,60
2019-04-03T13:59:30.718Z,59
2019-04-03T14:00:35.436Z,57
2019-04-03T14:01:43.023Z,57
2019-04-03T14:02:48.886Z,60
2019-04-03T14:03:53.214Z,61
2019-04-03T14:04:59.155Z,61
2019-04-03T14:06:06.598Z,59
2019-04-03T14:07:11.906Z,57
2019-04-03T14:08:15.714Z,54
2019-04-03T14:09:20.681Z,53
2019-04-03T14:10:28.790Z,53
2019-04-03T14:11:33.862Z,54
2019-04-03T14:12:47.184Z,56
2019-04-03T14:13:50.008Z,58
2019-04-03T14:14:52.974Z,58
2019-04-03T14:15:58.683Z,56
2019-04-03T14:17:01.057Z,53
2019-04-03T14:18:03.923Z,49
2019-04-03T14:19:06.500Z,47
2019-04-03T14:20:09.083Z,44
2019-04-03T14:21:12.294Z,40
2019-04-03T14:22:14.934Z,36
2019-04-03T14:23:18.032Z,34
2019-04-03T14:24:20.872Z,32
2019-04-03T14:25:40.062Z,31
2019-04-03T14:26:47.562Z,30
2019-04-03T14:27:50.429Z,28
2019-04-03T14:28:53.316Z,26
2019-04-03T14:29:59.793Z,25
2019-04-03T14:31:06.444Z,24
2019-04-03T14:32:08.489Z,23
2019-04-03T14:33:11.325Z,22
2019-04-03T14:34:14.326Z,22
2019-04-03T14:35:56.141Z,23
2019-04-03T14:36:58.762Z,21
2019-04-03T14:38:01.524Z,19
2019-04-03T14:39:10.387Z,19
2019-04-03T14:40:15.071Z,18
2019-04-03T14:41:21.836Z,17
2019-04-03T14:42:28.879Z,17
2019-04-03T14:43:36.807Z,15
2019-04-03T14:44:47.616Z,14
2019-04-03T14:45:50.493Z,13
2019-04-03T14:46:53.803Z,13
2019-04-03T14:47:58.050Z,14
2019-04-03T14:49:05.528Z,15
2019-04-03T14:50:09.318Z,17
2019-04-03T14:51:14.439Z,18
2019-04-03T14:52:19.540Z,18
2019-04-03T14:53:23.630Z,19
2019-04-03T14:54:27.163Z,18
2019-04-03T14:55:31.950Z,19
2019-04-03T14:56:36.229Z,21
2019-04-03T14:57:40.258Z,24
2019-04-03T14:58:43.551Z,25
2019-04-03T14:59:46.941Z,26
2019-04-03T15:00:51.993Z,26
2019-04-03T15:01:54.097Z,26
2019-04-03T15:03:00.076Z,25
2019-04-03T15:04:04.314Z,24
2019-04-03T15:05:11.043Z,23
2019-04-03T15:06:17.176Z,22
2019-04-03T15:07:21.205Z,22
2019-04-03T15:08:25.973Z,21
2019-04-03T15:09:30.836Z,20
2019-04-03T15:10:34.128Z,19
2019-04-03T15:11:38.362Z,19
2019-04-03T15:12:42.533Z,19
2019-04-03T15:13:45.603Z,19
2019-04-03T15:14:48.451Z,18
2019-04-03T15:15:51.463Z,16
2019-04-03T15:16:54.442Z,15
2019-04-03T15:17:56.885Z,15
2019-04-03T15:19:03.517Z,15
2019-04-03T15:20:06.103Z,17
2019-04-03T15:21:09.335Z,19
2019-04-03T15:22:12.313Z,22